sensor_id;sensor_type;location;lat;lon;timestamp;pressure;altitude;pressure_sealevel;temperature;humidity
62510;BME280;48558;48.242;11.654;2023-03-20T00:03:10;96436.47;;;8.97;100.00
62510;BME280;48558;48.242;11.654;2023-03-20T00:07:23;96431.53;;;8.92;100.00
62510;BME280;48558;48.242;11.654;2023-03-20T00:11:47;96439.09;;;8.79;100.00
62510;BME280;48558;48.242;11.654;2023-03-20T00:16:00;96436.69;;;9.02;100.00
62510;BME280;48558;48.242;11.654;2023-03-20T00:20:15;96428.53;;;8.99;100.00
62510;BME280;48558;48.242;11.654;2023-03-20T00:24:27;96433.09;;;8.93;100.00
62510;BME280;48558;48.242;11.654;2023-03-20T00:28:42;96436.72;;;8.90;100.00
62510;BME280;48558;48.242;11.654;2023-03-20T00:32:57;96426.94;;;8.89;100.00
62510;BME280;48558;48.242;11.654;2023-03-20T00:37:10;96434.16;;;8.74;100.00
62510;BME280;48558;48.242;11.654;2023-03-20T00:41:28;96428.66;;;8.74;100.00
62510;BME280;48558;48.242;11.654;2023-03-20T00:45:44;96443.56;;;8.63;100.00
62510;BME280;48558;48.242;11.654;2023-03-20T00:49:57;96432.31;;;8.71;100.00
62510;BME280;48558;48.242;11.654;2023-03-20T00:54:16;96432.63;;;8.73;100.00
62510;BME280;48558;48.242;11.654;2023-03-20T00:58:38;96425.81;;;8.64;100.00
62510;BME280;48558;48.242;11.654;2023-03-20T01:02:52;96434.41;;;8.66;100.00
62510;BME280;48558;48.242;11.654;2023-03-20T01:07:10;96435.78;;;8.49;100.00
62510;BME280;48558;48.242;11.654;2023-03-20T01:11:25;96426.66;;;8.52;100.00
62510;BME280;48558;48.242;11.654;2023-03-20T01:15:42;96431.66;;;8.66;100.00
62510;BME280;48558;48.242;11.654;2023-03-20T01:20:13;96434.41;;;8.66;100.00
62510;BME280;48558;48.242;11.654;2023-03-20T01:24:27;96439.50;;;8.55;100.00
62510;BME280;48558;48.242;11.654;2023-03-20T01:28:40;96441.06;;;8.56;100.00
62510;BME280;48558;48.242;11.654;2023-03-20T01:32:53;96438.72;;;8.55;100.00
62510;BME280;48558;48.242;11.654;2023-03-20T01:37:25;96436.84;;;8.64;100.00
62510;BME280;48558;48.242;11.654;2023-03-20T01:41:38;96437.84;;;8.58;100.00
62510;BME280;48558;48.242;11.654;2023-03-20T01:45:59;96427.72;;;8.55;100.00
62510;BME280;48558;48.242;11.654;2023-03-20T01:50:26;96429.72;;;8.54;100.00
62510;BME280;48558;48.242;11.654;2023-03-20T01:54:40;96431.38;;;8.52;100.00
62510;BME280;48558;48.242;11.654;2023-03-20T01:58:59;96436.44;;;8.53;100.00
62510;BME280;48558;48.242;11.654;2023-03-20T02:03:15;96427.06;;;8.51;100.00
62510;BME280;48558;48.242;11.654;2023-03-20T02:07:29;96428.09;;;8.44;100.00
62510;BME280;48558;48.242;11.654;2023-03-20T02:11:45;96428.66;;;8.39;100.00
62510;BME280;48558;48.242;11.654;2023-03-20T02:16:10;96434.94;;;8.40;100.00
62510;BME280;48558;48.242;11.654;2023-03-20T02:20:54;96426.31;;;8.50;100.00
62510;BME280;48558;48.242;11.654;2023-03-20T02:52:55;96431.41;;;8.39;100.00
62510;BME280;48558;48.242;11.654;2023-03-20T03:01:41;96433.84;;;8.37;100.00
62510;BME280;48558;48.242;11.654;2023-03-20T03:06:02;96433.28;;;8.42;100.00
62510;BME280;48558;48.242;11.654;2023-03-20T03:10:46;96438.69;;;8.33;100.00
62510;BME280;48558;48.242;11.654;2023-03-20T03:15:06;96428.34;;;8.37;100.00
62510;BME280;48558;48.242;11.654;2023-03-20T03:19:26;96435.63;;;8.31;100.00
62510;BME280;48558;48.242;11.654;2023-03-20T03:23:42;96441.22;;;8.28;100.00
62510;BME280;48558;48.242;11.654;2023-03-20T03:33:02;96436.03;;;8.42;100.00
62510;BME280;48558;48.242;11.654;2023-03-20T03:37:39;96446.75;;;8.28;100.00
62510;BME280;48558;48.242;11.654;2023-03-20T03:47:03;96454.25;;;8.27;100.00
62510;BME280;48558;48.242;11.654;2023-03-20T03:51:23;96461.81;;;8.23;100.00
62510;BME280;48558;48.242;11.654;2023-03-20T03:55:42;96458.97;;;8.14;100.00
62510;BME280;48558;48.242;11.654;2023-03-20T03:59:57;96462.38;;;8.18;100.00
62510;BME280;48558;48.242;11.654;2023-03-20T04:04:12;96453.53;;;8.23;100.00
62510;BME280;48558;48.242;11.654;2023-03-20T04:08:26;96464.22;;;8.21;100.00
62510;BME280;48558;48.242;11.654;2023-03-20T04:12:43;96472.16;;;8.19;100.00
62510;BME280;48558;48.242;11.654;2023-03-20T04:16:56;96484.53;;;8.27;100.00
62510;BME280;48558;48.242;11.654;2023-03-20T04:21:09;96490.03;;;8.27;100.00
62510;BME280;48558;48.242;11.654;2023-03-20T04:25:24;96478.13;;;8.30;100.00
62510;BME280;48558;48.242;11.654;2023-03-20T04:29:40;96471.63;;;8.24;100.00
62510;BME280;48558;48.242;11.654;2023-03-20T04:33:52;96480.56;;;8.28;100.00
62510;BME280;48558;48.242;11.654;2023-03-20T04:38:17;96489.47;;;8.32;100.00
62510;BME280;48558;48.242;11.654;2023-03-20T04:42:31;96487.47;;;8.20;100.00
62510;BME280;48558;48.242;11.654;2023-03-20T04:46:44;96467.88;;;8.18;100.00
62510;BME280;48558;48.242;11.654;2023-03-20T04:50:57;96503.81;;;8.27;100.00
62510;BME280;48558;48.242;11.654;2023-03-20T04:55:09;96493.63;;;8.24;100.00
62510;BME280;48558;48.242;11.654;2023-03-20T04:59:22;96494.72;;;8.14;100.00
62510;BME280;48558;48.242;11.654;2023-03-20T05:03:34;96500.81;;;8.09;100.00
62510;BME280;48558;48.242;11.654;2023-03-20T05:07:47;96514.81;;;8.27;100.00
62510;BME280;48558;48.242;11.654;2023-03-20T05:12:00;96505.97;;;8.20;100.00
62510;BME280;48558;48.242;11.654;2023-03-20T05:16:12;96505.53;;;8.21;100.00
62510;BME280;48558;48.242;11.654;2023-03-20T05:20:25;96510.19;;;8.12;100.00
62510;BME280;48558;48.242;11.654;2023-03-20T05:24:38;96511.25;;;8.14;100.00
62510;BME280;48558;48.242;11.654;2023-03-20T05:28:50;96522.06;;;8.09;100.00
62510;BME280;48558;48.242;11.654;2023-03-20T05:33:13;96513.03;;;8.08;100.00
62510;BME280;48558;48.242;11.654;2023-03-20T05:37:25;96509.84;;;7.97;100.00
62510;BME280;48558;48.242;11.654;2023-03-20T05:41:38;96523.38;;;8.04;100.00
62510;BME280;48558;48.242;11.654;2023-03-20T05:45:52;96541.00;;;8.07;100.00
62510;BME280;48558;48.242;11.654;2023-03-20T05:50:05;96535.50;;;8.07;100.00
62510;BME280;48558;48.242;11.654;2023-03-20T05:54:28;96541.09;;;8.03;100.00
62510;BME280;48558;48.242;11.654;2023-03-20T05:58:40;96552.78;;;8.07;100.00
62510;BME280;48558;48.242;11.654;2023-03-20T06:02:54;96517.31;;;7.84;100.00
62510;BME280;48558;48.242;11.654;2023-03-20T06:07:07;96535.38;;;8.10;100.00
62510;BME280;48558;48.242;11.654;2023-03-20T06:11:19;96541.66;;;8.11;100.00
62510;BME280;48558;48.242;11.654;2023-03-20T06:15:32;96565.63;;;8.10;100.00
62510;BME280;48558;48.242;11.654;2023-03-20T06:19:45;96556.50;;;8.13;100.00
62510;BME280;48558;48.242;11.654;2023-03-20T06:23:58;96564.16;;;8.34;100.00
62510;BME280;48558;48.242;11.654;2023-03-20T06:28:14;96562.59;;;8.21;100.00
62510;BME280;48558;48.242;11.654;2023-03-20T06:32:27;96580.84;;;8.15;100.00
62510;BME280;48558;48.242;11.654;2023-03-20T06:36:40;96569.81;;;8.15;100.00
62510;BME280;48558;48.242;11.654;2023-03-20T06:41:05;96581.72;;;8.24;100.00
62510;BME280;48558;48.242;11.654;2023-03-20T06:45:19;96592.75;;;8.37;100.00
62510;BME280;48558;48.242;11.654;2023-03-20T06:49:32;96581.75;;;8.37;100.00
62510;BME280;48558;48.242;11.654;2023-03-20T06:53:44;96575.59;;;8.45;100.00
62510;BME280;48558;48.242;11.654;2023-03-20T06:57:57;96580.78;;;8.43;100.00
62510;BME280;48558;48.242;11.654;2023-03-20T07:02:10;96575.69;;;8.54;100.00
62510;BME280;48558;48.242;11.654;2023-03-20T07:06:23;96582.72;;;8.55;100.00
62510;BME280;48558;48.242;11.654;2023-03-20T07:10:35;96585.38;;;8.46;100.00
62510;BME280;48558;48.242;11.654;2023-03-20T07:14:49;96579.78;;;8.50;100.00
62510;BME280;48558;48.242;11.654;2023-03-20T07:19:01;96591.53;;;8.50;100.00
62510;BME280;48558;48.242;11.654;2023-03-20T07:23:14;96590.56;;;8.57;100.00
62510;BME280;48558;48.242;11.654;2023-03-20T07:27:27;96596.78;;;8.83;100.00
62510;BME280;48558;48.242;11.654;2023-03-20T07:31:39;96601.44;;;8.86;100.00
62510;BME280;48558;48.242;11.654;2023-03-20T07:35:53;96611.13;;;9.24;100.00
62510;BME280;48558;48.242;11.654;2023-03-20T07:40:07;96615.47;;;9.69;100.00
62510;BME280;48558;48.242;11.654;2023-03-20T07:44:22;96625.66;;;9.59;100.00
62510;BME280;48558;48.242;11.654;2023-03-20T07:48:35;96616.59;;;9.37;100.00
62510;BME280;48558;48.242;11.654;2023-03-20T07:52:48;96622.75;;;9.41;100.00
62510;BME280;48558;48.242;11.654;2023-03-20T07:57:03;96609.91;;;9.25;100.00
62510;BME280;48558;48.242;11.654;2023-03-20T08:01:16;96621.06;;;9.56;100.00
62510;BME280;48558;48.242;11.654;2023-03-20T08:05:29;96621.69;;;9.60;100.00
62510;BME280;48558;48.242;11.654;2023-03-20T08:09:41;96622.16;;;9.59;100.00
62510;BME280;48558;48.242;11.654;2023-03-20T08:13:54;96619.91;;;9.88;100.00
62510;BME280;48558;48.242;11.654;2023-03-20T08:18:06;96629.47;;;10.48;100.00
62510;BME280;48558;48.242;11.654;2023-03-20T08:22:19;96618.00;;;10.59;100.00
62510;BME280;48558;48.242;11.654;2023-03-20T08:26:32;96607.19;;;9.90;100.00
62510;BME280;48558;48.242;11.654;2023-03-20T08:30:44;96612.84;;;10.39;100.00
62510;BME280;48558;48.242;11.654;2023-03-20T08:34:57;96606.03;;;10.62;100.00
62510;BME280;48558;48.242;11.654;2023-03-20T08:39:09;96606.78;;;10.23;100.00
62510;BME280;48558;48.242;11.654;2023-03-20T08:43:22;96604.00;;;10.23;100.00
62510;BME280;48558;48.242;11.654;2023-03-20T08:47:35;96602.44;;;10.92;100.00
62510;BME280;48558;48.242;11.654;2023-03-20T08:51:50;96609.81;;;11.04;100.00
62510;BME280;48558;48.242;11.654;2023-03-20T08:56:03;96600.78;;;11.40;100.00
62510;BME280;48558;48.242;11.654;2023-03-20T09:00:16;96596.63;;;11.53;100.00
62510;BME280;48558;48.242;11.654;2023-03-20T09:04:31;96603.09;;;11.32;100.00
62510;BME280;48558;48.242;11.654;2023-03-20T09:08:46;96604.56;;;10.88;100.00
62510;BME280;48558;48.242;11.654;2023-03-20T09:12:59;96594.00;;;11.05;100.00
62510;BME280;48558;48.242;11.654;2023-03-20T09:17:26;96605.88;;;11.41;100.00
62510;BME280;48558;48.242;11.654;2023-03-20T09:21:38;96614.16;;;11.23;100.00
62510;BME280;48558;48.242;11.654;2023-03-20T09:25:51;96608.16;;;11.16;100.00
62510;BME280;48558;48.242;11.654;2023-03-20T09:30:05;96625.34;;;12.19;100.00
62510;BME280;48558;48.242;11.654;2023-03-20T09:34:19;96615.97;;;12.17;100.00
62510;BME280;48558;48.242;11.654;2023-03-20T09:38:37;96623.75;;;11.68;100.00
62510;BME280;48558;48.242;11.654;2023-03-20T09:48:00;96631.41;;;11.64;100.00
62510;BME280;48558;48.242;11.654;2023-03-20T09:52:39;96623.47;;;12.44;100.00
62510;BME280;48558;48.242;11.654;2023-03-20T09:56:57;96617.78;;;12.80;100.00
62510;BME280;48558;48.242;11.654;2023-03-20T10:01:12;96617.22;;;12.58;100.00
62510;BME280;48558;48.242;11.654;2023-03-20T10:05:34;96617.66;;;12.98;100.00
62510;BME280;48558;48.242;11.654;2023-03-20T10:09:49;96613.56;;;13.41;100.00
62510;BME280;48558;48.242;11.654;2023-03-20T10:18:28;96603.75;;;14.51;100.00
62510;BME280;48558;48.242;11.654;2023-03-20T10:22:52;96599.63;;;14.17;100.00
62510;BME280;48558;48.242;11.654;2023-03-20T10:27:25;96606.75;;;12.94;100.00
62510;BME280;48558;48.242;11.654;2023-03-20T10:32:27;96601.00;;;13.69;100.00
62510;BME280;48558;48.242;11.654;2023-03-20T10:41:41;96584.22;;;15.75;100.00
62510;BME280;48558;48.242;11.654;2023-03-20T10:50:26;96578.53;;;13.96;100.00
62510;BME280;48558;48.242;11.654;2023-03-20T10:54:55;96578.16;;;12.47;100.00
62510;BME280;48558;48.242;11.654;2023-03-20T10:59:37;96555.88;;;12.98;100.00
62510;BME280;48558;48.242;11.654;2023-03-20T11:03:52;96562.41;;;13.56;100.00
62510;BME280;48558;48.242;11.654;2023-03-20T11:08:11;96562.06;;;13.16;100.00
62510;BME280;48558;48.242;11.654;2023-03-20T11:12:31;96557.16;;;13.35;100.00
62510;BME280;48558;48.242;11.654;2023-03-20T11:16:50;96566.09;;;15.05;97.46
62510;BME280;48558;48.242;11.654;2023-03-20T11:21:09;96557.81;;;16.22;80.25
62510;BME280;48558;48.242;11.654;2023-03-20T11:25:32;96552.81;;;17.53;80.21
62510;BME280;48558;48.242;11.654;2023-03-20T11:29:47;96559.31;;;15.26;90.93
62510;BME280;48558;48.242;11.654;2023-03-20T11:34:18;96551.34;;;17.63;78.97
62510;BME280;48558;48.242;11.654;2023-03-20T11:38:42;96558.59;;;16.28;80.68
62510;BME280;48558;48.242;11.654;2023-03-20T11:47:20;96549.66;;;16.50;70.20
62510;BME280;48558;48.242;11.654;2023-03-20T11:51:34;96548.91;;;15.27;66.14
62510;BME280;48558;48.242;11.654;2023-03-20T12:00:40;96545.47;;;13.98;85.84
62510;BME280;48558;48.242;11.654;2023-03-20T12:05:18;96542.50;;;14.02;83.36
62510;BME280;48558;48.242;11.654;2023-03-20T12:10:05;96546.53;;;13.86;85.76
62510;BME280;48558;48.242;11.654;2023-03-20T12:18:53;96548.97;;;13.40;100.00
62510;BME280;48558;48.242;11.654;2023-03-20T12:27:34;96541.78;;;13.10;100.00
62510;BME280;48558;48.242;11.654;2023-03-20T12:31:52;96526.41;;;13.24;100.00
62510;BME280;48558;48.242;11.654;2023-03-20T12:36:16;96531.25;;;12.90;100.00
62510;BME280;48558;48.242;11.654;2023-03-20T12:40:42;96526.91;;;12.75;100.00
62510;BME280;48558;48.242;11.654;2023-03-20T12:45:16;96517.75;;;13.07;100.00
62510;BME280;48558;48.242;11.654;2023-03-20T12:49:52;96519.13;;;13.03;100.00
62510;BME280;48558;48.242;11.654;2023-03-20T12:54:23;96521.72;;;13.30;100.00
62510;BME280;48558;48.242;11.654;2023-03-20T13:03:27;96527.81;;;13.43;97.48
62510;BME280;48558;48.242;11.654;2023-03-20T13:08:12;96522.28;;;12.95;96.91
62510;BME280;48558;48.242;11.654;2023-03-20T13:17:18;96524.22;;;13.28;94.76
62510;BME280;48558;48.242;11.654;2023-03-20T13:22:05;96519.50;;;13.87;97.88
62510;BME280;48558;48.242;11.654;2023-03-20T13:26:37;96522.97;;;14.11;96.07
62510;BME280;48558;48.242;11.654;2023-03-20T13:31:23;96520.56;;;13.89;91.76
62510;BME280;48558;48.242;11.654;2023-03-20T13:36:06;96505.91;;;13.89;92.40
62510;BME280;48558;48.242;11.654;2023-03-20T13:40:32;96519.03;;;13.74;87.92
62510;BME280;48558;48.242;11.654;2023-03-20T13:44:52;96508.19;;;14.19;78.18
62510;BME280;48558;48.242;11.654;2023-03-20T13:49:15;96490.94;;;14.65;76.98
62510;BME280;48558;48.242;11.654;2023-03-20T13:54:25;96501.13;;;14.88;69.80
62510;BME280;48558;48.242;11.654;2023-03-20T14:03:32;96489.00;;;16.08;62.30
62510;BME280;48558;48.242;11.654;2023-03-20T14:07:49;96489.38;;;16.27;67.71
62510;BME280;48558;48.242;11.654;2023-03-20T14:12:09;96482.38;;;16.37;60.90
62510;BME280;48558;48.242;11.654;2023-03-20T14:16:22;96479.63;;;16.79;58.85
62510;BME280;48558;48.242;11.654;2023-03-20T14:20:40;96478.91;;;14.53;73.61
62510;BME280;48558;48.242;11.654;2023-03-20T14:24:59;96480.00;;;15.67;66.22
62510;BME280;48558;48.242;11.654;2023-03-20T14:29:26;96463.34;;;15.99;62.45
62510;BME280;48558;48.242;11.654;2023-03-20T14:33:44;96465.34;;;17.31;55.75
62510;BME280;48558;48.242;11.654;2023-03-20T14:38:10;96466.59;;;14.80;72.87
62510;BME280;48558;48.242;11.654;2023-03-20T14:47:12;96456.50;;;13.78;82.07
62510;BME280;48558;48.242;11.654;2023-03-20T14:51:40;96465.66;;;13.26;83.43
62510;BME280;48558;48.242;11.654;2023-03-20T14:56:00;96467.63;;;13.63;78.82
62510;BME280;48558;48.242;11.654;2023-03-20T15:00:23;96464.53;;;13.47;78.56
62510;BME280;48558;48.242;11.654;2023-03-20T15:04:38;96458.91;;;14.34;77.96
62510;BME280;48558;48.242;11.654;2023-03-20T15:08:58;96450.41;;;14.58;70.93
62510;BME280;48558;48.242;11.654;2023-03-20T15:13:14;96456.66;;;14.73;67.89
62510;BME280;48558;48.242;11.654;2023-03-20T15:17:39;96450.38;;;14.23;71.12
62510;BME280;48558;48.242;11.654;2023-03-20T15:21:56;96460.31;;;13.95;76.17
62510;BME280;48558;48.242;11.654;2023-03-20T15:26:14;96460.91;;;13.55;75.58
62510;BME280;48558;48.242;11.654;2023-03-20T15:30:29;96460.81;;;13.79;75.90
62510;BME280;48558;48.242;11.654;2023-03-20T15:34:45;96451.25;;;13.65;76.37
62510;BME280;48558;48.242;11.654;2023-03-20T15:39:12;96454.34;;;13.15;78.10
62510;BME280;48558;48.242;11.654;2023-03-20T15:43:27;96454.72;;;13.08;78.07
62510;BME280;48558;48.242;11.654;2023-03-20T15:47:41;96454.44;;;12.82;79.92
62510;BME280;48558;48.242;11.654;2023-03-20T15:56:51;96452.19;;;12.71;81.86
62510;BME280;48558;48.242;11.654;2023-03-20T16:01:06;96457.28;;;12.49;83.99
62510;BME280;48558;48.242;11.654;2023-03-20T16:05:24;96445.72;;;12.51;84.17
62510;BME280;48558;48.242;11.654;2023-03-20T16:09:42;96437.41;;;12.27;84.65
62510;BME280;48558;48.242;11.654;2023-03-20T16:13:56;96436.47;;;12.54;85.92
62510;BME280;48558;48.242;11.654;2023-03-20T16:18:13;96441.47;;;12.41;85.23
62510;BME280;48558;48.242;11.654;2023-03-20T16:22:29;96438.75;;;12.32;90.16
62510;BME280;48558;48.242;11.654;2023-03-20T16:26:46;96441.88;;;12.24;91.79
62510;BME280;48558;48.242;11.654;2023-03-20T16:31:46;96432.97;;;12.20;95.84
62510;BME280;48558;48.242;11.654;2023-03-20T16:35:59;96434.25;;;12.10;98.42
62510;BME280;48558;48.242;11.654;2023-03-20T16:40:21;96431.56;;;11.92;95.36
62510;BME280;48558;48.242;11.654;2023-03-20T16:44:39;96434.78;;;12.00;93.59
62510;BME280;48558;48.242;11.654;2023-03-20T16:49:01;96442.25;;;11.76;97.72
62510;BME280;48558;48.242;11.654;2023-03-20T16:53:52;96451.03;;;11.56;99.66
62510;BME280;48558;48.242;11.654;2023-03-20T16:58:19;96450.13;;;11.50;100.00
62510;BME280;48558;48.242;11.654;2023-03-20T17:02:38;96448.50;;;11.25;100.00
62510;BME280;48558;48.242;11.654;2023-03-20T17:06:58;96456.53;;;10.96;100.00
62510;BME280;48558;48.242;11.654;2023-03-20T17:11:14;96463.84;;;11.26;100.00
62510;BME280;48558;48.242;11.654;2023-03-20T17:15:28;96464.03;;;10.77;100.00
62510;BME280;48558;48.242;11.654;2023-03-20T17:19:41;96464.63;;;10.54;100.00
62510;BME280;48558;48.242;11.654;2023-03-20T17:23:54;96456.63;;;10.47;100.00
62510;BME280;48558;48.242;11.654;2023-03-20T17:28:14;96450.94;;;10.33;100.00
62510;BME280;48558;48.242;11.654;2023-03-20T17:32:31;96473.03;;;10.02;100.00
62510;BME280;48558;48.242;11.654;2023-03-20T17:36:44;96462.44;;;9.91;100.00
62510;BME280;48558;48.242;11.654;2023-03-20T17:40:57;96467.59;;;9.80;100.00
62510;BME280;48558;48.242;11.654;2023-03-20T17:45:12;96471.00;;;9.32;100.00
62510;BME280;48558;48.242;11.654;2023-03-20T17:49:29;96468.13;;;8.92;100.00
62510;BME280;48558;48.242;11.654;2023-03-20T17:53:43;96471.94;;;8.73;100.00
62510;BME280;48558;48.242;11.654;2023-03-20T17:57:59;96461.28;;;8.41;100.00
62510;BME280;48558;48.242;11.654;2023-03-20T18:02:13;96475.44;;;8.52;100.00
62510;BME280;48558;48.242;11.654;2023-03-20T18:06:28;96472.06;;;8.35;100.00
62510;BME280;48558;48.242;11.654;2023-03-20T18:10:43;96467.44;;;8.20;100.00
62510;BME280;48558;48.242;11.654;2023-03-20T18:14:57;96462.72;;;7.95;100.00
62510;BME280;48558;48.242;11.654;2023-03-20T18:19:25;96470.66;;;7.93;100.00
62510;BME280;48558;48.242;11.654;2023-03-20T18:23:39;96468.69;;;7.81;100.00
62510;BME280;48558;48.242;11.654;2023-03-20T18:27:53;96467.91;;;7.68;100.00
62510;BME280;48558;48.242;11.654;2023-03-20T18:32:06;96453.06;;;7.53;100.00
62510;BME280;48558;48.242;11.654;2023-03-20T18:36:22;96459.44;;;7.50;100.00
62510;BME280;48558;48.242;11.654;2023-03-20T18:40:36;96474.25;;;7.40;100.00
62510;BME280;48558;48.242;11.654;2023-03-20T18:44:49;96481.75;;;7.39;100.00
62510;BME280;48558;48.242;11.654;2023-03-20T18:49:01;96489.88;;;7.30;100.00
62510;BME280;48558;48.242;11.654;2023-03-20T18:53:14;96486.19;;;7.20;100.00
62510;BME280;48558;48.242;11.654;2023-03-20T18:57:26;96499.69;;;7.15;100.00
62510;BME280;48558;48.242;11.654;2023-03-20T19:01:39;96499.22;;;7.04;100.00
62510;BME280;48558;48.242;11.654;2023-03-20T19:06:02;96495.91;;;6.96;100.00
62510;BME280;48558;48.242;11.654;2023-03-20T19:14:36;96505.97;;;7.15;100.00
62510;BME280;48558;48.242;11.654;2023-03-20T19:18:53;96494.59;;;7.30;100.00
62510;BME280;48558;48.242;11.654;2023-03-20T19:23:09;96502.19;;;7.38;100.00
62510;BME280;48558;48.242;11.654;2023-03-20T19:27:23;96509.22;;;7.39;100.00
62510;BME280;48558;48.242;11.654;2023-03-20T19:31:35;96509.22;;;7.39;100.00
62510;BME280;48558;48.242;11.654;2023-03-20T19:35:48;96510.53;;;7.35;100.00
62510;BME280;48558;48.242;11.654;2023-03-20T19:40:28;96512.69;;;7.14;100.00
62510;BME280;48558;48.242;11.654;2023-03-20T19:44:41;96511.53;;;6.99;100.00
62510;BME280;48558;48.242;11.654;2023-03-20T19:48:54;96520.34;;;6.78;100.00
62510;BME280;48558;48.242;11.654;2023-03-20T19:53:10;96504.41;;;6.57;100.00
62510;BME280;48558;48.242;11.654;2023-03-20T19:57:23;96510.84;;;6.50;100.00
62510;BME280;48558;48.242;11.654;2023-03-20T20:01:36;96466.72;;;6.13;100.00
62510;BME280;48558;48.242;11.654;2023-03-20T20:05:55;96502.19;;;6.20;100.00
62510;BME280;48558;48.242;11.654;2023-03-20T20:10:08;96504.03;;;6.10;100.00
62510;BME280;48558;48.242;11.654;2023-03-20T20:14:21;96515.75;;;5.95;100.00
62510;BME280;48558;48.242;11.654;2023-03-20T20:18:34;96517.16;;;5.83;100.00
62510;BME280;48558;48.242;11.654;2023-03-20T20:22:48;96510.22;;;5.78;100.00
62510;BME280;48558;48.242;11.654;2023-03-20T20:27:00;96509.91;;;5.57;100.00
62510;BME280;48558;48.242;11.654;2023-03-20T20:31:29;96499.09;;;5.50;100.00
62510;BME280;48558;48.242;11.654;2023-03-20T20:35:52;96516.31;;;5.50;100.00
62510;BME280;48558;48.242;11.654;2023-03-20T20:40:26;96511.84;;;5.56;100.00
62510;BME280;48558;48.242;11.654;2023-03-20T20:44:39;96490.13;;;5.49;100.00
62510;BME280;48558;48.242;11.654;2023-03-20T20:48:55;96504.50;;;5.53;100.00
62510;BME280;48558;48.242;11.654;2023-03-20T20:53:08;96506.66;;;5.62;100.00
62510;BME280;48558;48.242;11.654;2023-03-20T20:57:21;96502.16;;;5.52;100.00
62510;BME280;48558;48.242;11.654;2023-03-20T21:01:33;96500.16;;;5.36;100.00
62510;BME280;48558;48.242;11.654;2023-03-20T21:05:46;96509.59;;;5.35;100.00
62510;BME280;48558;48.242;11.654;2023-03-20T21:09:59;96506.50;;;5.33;100.00
62510;BME280;48558;48.242;11.654;2023-03-20T21:14:13;96510.28;;;5.39;100.00
62510;BME280;48558;48.242;11.654;2023-03-20T21:18:25;96511.91;;;5.37;100.00
62510;BME280;48558;48.242;11.654;2023-03-20T21:22:38;96508.97;;;5.28;100.00
62510;BME280;48558;48.242;11.654;2023-03-20T21:26:52;96516.28;;;5.15;100.00
62510;BME280;48558;48.242;11.654;2023-03-20T21:31:04;96518.09;;;5.01;100.00
62510;BME280;48558;48.242;11.654;2023-03-20T21:35:35;96511.19;;;4.93;100.00
62510;BME280;48558;48.242;11.654;2023-03-20T21:39:50;96514.38;;;4.92;100.00
62510;BME280;48558;48.242;11.654;2023-03-20T21:44:06;96515.94;;;4.93;100.00
62510;BME280;48558;48.242;11.654;2023-03-20T21:48:34;96517.59;;;4.87;100.00
62510;BME280;48558;48.242;11.654;2023-03-20T21:53:07;96509.81;;;4.85;100.00
62510;BME280;48558;48.242;11.654;2023-03-20T21:57:40;96514.28;;;4.76;100.00
62510;BME280;48558;48.242;11.654;2023-03-20T22:02:15;96499.72;;;4.59;100.00
62510;BME280;48558;48.242;11.654;2023-03-20T22:06:37;96510.66;;;4.59;100.00
62510;BME280;48558;48.242;11.654;2023-03-20T22:11:10;96517.41;;;4.55;100.00
62510;BME280;48558;48.242;11.654;2023-03-20T22:15:43;96513.97;;;4.51;100.00
62510;BME280;48558;48.242;11.654;2023-03-20T22:20:15;96505.47;;;4.45;100.00
62510;BME280;48558;48.242;11.654;2023-03-20T22:24:48;96483.22;;;4.20;100.00
62510;BME280;48558;48.242;11.654;2023-03-20T22:29:22;96506.75;;;4.37;100.00
62510;BME280;48558;48.242;11.654;2023-03-20T22:38:09;96522.13;;;4.54;100.00
62510;BME280;48558;48.242;11.654;2023-03-20T22:42:41;96504.31;;;4.66;100.00
62510;BME280;48558;48.242;11.654;2023-03-20T22:47:10;96511.41;;;4.83;100.00
62510;BME280;48558;48.242;11.654;2023-03-20T22:51:23;96484.31;;;4.69;100.00
62510;BME280;48558;48.242;11.654;2023-03-20T22:55:49;96510.72;;;4.79;100.00
62510;BME280;48558;48.242;11.654;2023-03-20T23:00:03;96496.13;;;4.85;100.00
62510;BME280;48558;48.242;11.654;2023-03-20T23:04:18;96489.03;;;5.07;100.00
62510;BME280;48558;48.242;11.654;2023-03-20T23:08:31;96497.22;;;5.27;100.00
62510;BME280;48558;48.242;11.654;2023-03-20T23:12:58;96505.72;;;5.33;100.00
62510;BME280;48558;48.242;11.654;2023-03-20T23:17:11;96491.75;;;5.27;100.00
62510;BME280;48558;48.242;11.654;2023-03-20T23:21:23;96496.53;;;5.23;100.00
62510;BME280;48558;48.242;11.654;2023-03-20T23:25:37;96489.78;;;5.28;100.00
62510;BME280;48558;48.242;11.654;2023-03-20T23:29:51;96487.63;;;5.19;100.00
62510;BME280;48558;48.242;11.654;2023-03-20T23:34:03;96487.38;;;5.30;100.00
62510;BME280;48558;48.242;11.654;2023-03-20T23:38:15;96485.28;;;5.37;100.00
62510;BME280;48558;48.242;11.654;2023-03-20T23:42:28;96480.53;;;5.57;100.00
62510;BME280;48558;48.242;11.654;2023-03-20T23:46:41;96458.91;;;5.43;100.00
62510;BME280;48558;48.242;11.654;2023-03-20T23:50:57;96477.50;;;5.52;100.00
62510;BME280;48558;48.242;11.654;2023-03-20T23:55:09;96477.50;;;5.52;100.00
62510;BME280;48558;48.242;11.654;2023-03-20T23:59:22;96465.06;;;5.47;100.00
